createdAt,value
2023-01-15T00:02:08.013Z,0.70
2023-01-15T00:04:35.229Z,0.73
2023-01-15T00:07:02.031Z,1.10
2023-01-15T00:09:28.815Z,0.90
2023-01-15T00:11:55.705Z,1.10
2023-01-15T00:14:22.528Z,0.67
2023-01-15T00:16:53.339Z,0.50
2023-01-15T00:19:20.247Z,0.70
2023-01-15T00:21:47.052Z,0.30
2023-01-15T00:24:32.535Z,0.50
2023-01-15T00:27:18.046Z,0.40
2023-01-15T00:29:44.917Z,0.70
2023-01-15T00:32:14.499Z,0.60
2023-01-15T00:34:41.272Z,0.60
2023-01-15T00:37:08.260Z,0.60
2023-01-15T00:39:35.702Z,0.70
2023-01-15T00:42:02.728Z,0.60
2023-01-15T00:44:29.548Z,0.70
2023-01-15T00:46:56.376Z,0.37
2023-01-15T00:49:23.185Z,0.60
2023-01-15T00:51:50.146Z,0.50
2023-01-15T00:54:17.721Z,0.50
2023-01-15T00:56:44.756Z,0.60
2023-01-15T00:59:11.764Z,0.60
2023-01-15T01:01:39.106Z,0.57
2023-01-15T01:04:06.049Z,0.37
2023-01-15T01:06:32.949Z,0.63
2023-01-15T01:08:59.866Z,0.40
2023-01-15T01:11:27.060Z,0.60
2023-01-15T01:13:55.759Z,0.30
2023-01-15T01:16:24.610Z,0.40
2023-01-15T01:18:51.836Z,0.30
2023-01-15T01:21:18.803Z,0.40
2023-01-15T01:23:45.617Z,0.50
2023-01-15T01:26:14.020Z,0.40
2023-01-15T01:28:42.089Z,0.50
2023-01-15T01:31:10.058Z,0.40
2023-01-15T01:33:36.972Z,0.57
2023-01-15T01:36:04.250Z,0.30
2023-01-15T01:38:31.085Z,0.27
2023-01-15T01:40:58.319Z,0.30
2023-01-15T01:43:27.655Z,0.40
2023-01-15T01:45:54.537Z,0.60
2023-01-15T01:48:26.834Z,0.40
2023-01-15T01:50:55.540Z,0.40
2023-01-15T01:53:26.723Z,0.37
2023-01-15T01:55:54.061Z,0.50
2023-01-15T01:58:22.630Z,0.40
2023-01-15T02:00:51.897Z,0.43
2023-01-15T02:03:21.479Z,0.40
2023-01-15T02:05:54.189Z,0.50
2023-01-15T02:08:22.577Z,0.33
2023-01-15T02:10:53.981Z,0.60
2023-01-15T02:13:35.840Z,0.47
2023-01-15T02:16:26.126Z,0.50
2023-01-15T02:19:27.397Z,0.40
2023-01-15T02:22:20.110Z,0.43
2023-01-15T02:25:14.606Z,0.50
2023-01-15T02:27:47.536Z,0.70
2023-01-15T02:30:26.467Z,0.60
2023-01-15T02:33:04.621Z,0.30
2023-01-15T02:35:43.550Z,0.70
2023-01-15T02:38:15.016Z,0.90
2023-01-15T02:40:43.677Z,0.60
2023-01-15T02:43:13.187Z,0.80
2023-01-15T02:45:42.461Z,1.30
2023-01-15T02:48:16.279Z,1.37
2023-01-15T02:50:50.335Z,1.63
2023-01-15T02:53:24.441Z,1.60
2023-01-15T02:55:57.679Z,1.63
2023-01-15T02:58:30.328Z,1.70
2023-01-15T03:01:01.723Z,1.70
2023-01-15T03:04:04.888Z,1.93
2023-01-15T03:06:49.706Z,2.20
2023-01-15T03:09:16.880Z,1.80
2023-01-15T03:12:18.037Z,1.47
2023-01-15T03:15:03.744Z,1.60
2023-01-15T03:17:56.852Z,1.90
2023-01-15T03:20:29.251Z,1.77
2023-01-15T03:23:06.287Z,1.40
2023-01-15T03:25:42.704Z,1.13
2023-01-15T03:28:12.030Z,1.23
2023-01-15T03:30:38.862Z,0.80
2023-01-15T03:33:05.927Z,0.80
2023-01-15T03:35:57.576Z,0.97
2023-01-15T03:38:30.486Z,0.90
2023-01-15T03:41:06.381Z,0.70
2023-01-15T03:43:51.883Z,0.80
2023-01-15T03:46:26.899Z,0.90
2023-01-15T03:49:10.350Z,0.73
2023-01-15T03:51:46.265Z,0.60
2023-01-15T03:54:22.091Z,0.80
2023-01-15T03:57:01.790Z,0.80
2023-01-15T03:59:55.654Z,0.70
2023-01-15T04:02:23.696Z,0.90
2023-01-15T04:04:52.253Z,0.73
2023-01-15T04:07:19.868Z,0.73
2023-01-15T04:09:47.173Z,0.90
2023-01-15T04:12:14.732Z,0.83
2023-01-15T04:14:41.640Z,0.90
2023-01-15T04:17:08.694Z,0.80
2023-01-15T04:19:35.564Z,0.83
2023-01-15T04:22:02.330Z,0.80
2023-01-15T04:24:29.159Z,0.70
2023-01-15T04:26:56.097Z,1.10
2023-01-15T04:29:22.893Z,0.97
2023-01-15T04:31:52.720Z,1.07
2023-01-15T04:34:20.060Z,0.60
2023-01-15T04:36:48.050Z,1.27
2023-01-15T04:39:14.903Z,1.03
2023-01-15T04:42:00.148Z,0.83
2023-01-15T04:44:28.725Z,0.73
2023-01-15T04:46:57.489Z,1.10
2023-01-15T04:49:24.492Z,0.80
2023-01-15T04:51:51.537Z,1.10
2023-01-15T04:54:18.797Z,0.90
2023-01-15T04:56:48.252Z,1.23
2023-01-15T04:59:15.631Z,1.13
2023-01-15T05:01:51.387Z,1.33
2023-01-15T05:04:25.547Z,1.27
2023-01-15T05:06:53.332Z,0.87
2023-01-15T05:09:20.203Z,1.10
2023-01-15T05:11:47.087Z,0.90
2023-01-15T05:14:13.857Z,0.97
2023-01-15T05:16:40.723Z,1.40
2023-01-15T05:19:08.126Z,1.20
2023-01-15T05:21:39.712Z,1.07
2023-01-15T05:24:11.105Z,1.93
2023-01-15T05:26:37.855Z,1.10
2023-01-15T05:29:05.421Z,0.77
2023-01-15T05:31:33.711Z,0.70
2023-01-15T05:34:01.281Z,1.07
2023-01-15T05:36:31.060Z,1.40
2023-01-15T05:39:01.584Z,1.13
2023-01-15T05:41:52.427Z,0.80
2023-01-15T05:44:29.934Z,1.20
2023-01-15T05:47:00.321Z,0.93
2023-01-15T05:49:28.759Z,1.60
2023-01-15T05:51:55.749Z,0.93
2023-01-15T05:54:26.741Z,0.90
2023-01-15T05:56:54.323Z,0.90
2023-01-15T05:59:24.404Z,0.87
2023-01-15T06:01:51.966Z,1.13
2023-01-15T06:04:21.420Z,1.10
2023-01-15T06:06:50.540Z,1.10
2023-01-15T06:09:18.115Z,1.03
2023-01-15T06:11:45.573Z,1.10
2023-01-15T06:14:12.754Z,0.80
2023-01-15T06:16:41.123Z,0.97
2023-01-15T06:19:09.600Z,0.83
2023-01-15T06:21:36.523Z,0.70
2023-01-15T06:24:04.330Z,0.90
2023-01-15T06:26:31.144Z,1.20
2023-01-15T06:28:58.140Z,1.23
2023-01-15T06:31:28.755Z,1.17
2023-01-15T06:33:55.688Z,1.03
2023-01-15T06:36:25.174Z,1.00
2023-01-15T06:38:51.963Z,1.07
2023-01-15T06:41:40.781Z,1.17
2023-01-15T06:44:31.001Z,1.20
2023-01-15T06:47:16.273Z,1.13
2023-01-15T06:49:43.119Z,1.10
2023-01-15T06:52:10.099Z,1.03
2023-01-15T06:54:36.909Z,0.90
2023-01-15T06:57:03.855Z,1.20
2023-01-15T06:59:31.380Z,1.23
2023-01-15T07:01:58.498Z,0.97
2023-01-15T07:04:25.645Z,1.10
2023-01-15T07:06:52.451Z,1.30
2023-01-15T07:09:19.468Z,1.37
2023-01-15T07:11:49.719Z,1.20
2023-01-15T07:14:22.517Z,1.30
2023-01-15T07:16:49.991Z,1.27
2023-01-15T07:19:17.818Z,1.30
2023-01-15T07:21:44.667Z,1.13
2023-01-15T07:24:12.352Z,1.47
2023-01-15T07:26:39.512Z,1.37
2023-01-15T07:29:06.414Z,1.37
2023-01-15T07:31:33.639Z,1.27
2023-01-15T07:34:01.024Z,1.37
2023-01-15T07:36:28.312Z,1.77
2023-01-15T07:38:55.218Z,1.10
2023-01-15T07:41:41.180Z,2.00
2023-01-15T07:44:29.878Z,1.53
2023-01-15T07:47:15.855Z,1.60
2023-01-15T07:49:46.745Z,2.30
2023-01-15T07:52:15.580Z,1.73
2023-01-15T07:54:43.240Z,1.90
2023-01-15T07:57:11.598Z,2.00
2023-01-15T07:59:38.828Z,2.20
2023-01-15T08:02:06.188Z,1.80
2023-01-15T08:04:33.112Z,1.80
2023-01-15T08:07:01.748Z,1.80
2023-01-15T08:09:28.745Z,1.80
2023-01-15T08:12:14.788Z,1.53
2023-01-15T08:15:00.424Z,2.13
2023-01-15T08:17:27.257Z,2.23
2023-01-15T08:19:54.194Z,1.90
2023-01-15T08:22:21.219Z,1.77
2023-01-15T08:24:48.264Z,1.50
2023-01-15T08:27:15.045Z,1.83
2023-01-15T08:29:41.762Z,2.03
2023-01-15T08:32:08.965Z,1.57
2023-01-15T08:34:35.708Z,1.60
2023-01-15T08:37:02.580Z,2.10
2023-01-15T08:39:29.676Z,1.63
2023-01-15T08:41:56.900Z,1.57
2023-01-15T08:44:23.964Z,2.27
2023-01-15T08:46:52.252Z,1.50
2023-01-15T08:49:20.709Z,1.57
2023-01-15T08:51:51.604Z,1.10
2023-01-15T08:54:20.238Z,1.10
2023-01-15T08:56:47.463Z,1.17
2023-01-15T08:59:14.439Z,0.93
2023-01-15T09:01:42.062Z,1.00
2023-01-15T09:04:13.325Z,0.70
2023-01-15T09:06:40.377Z,1.47
2023-01-15T09:09:07.543Z,1.00
2023-01-15T09:11:34.731Z,0.80
2023-01-15T09:14:01.571Z,0.90
2023-01-15T09:16:30.951Z,0.90
2023-01-15T09:18:58.146Z,0.90
2023-01-15T09:21:24.973Z,0.60
2023-01-15T09:23:52.052Z,1.10
2023-01-15T09:26:27.128Z,1.10
2023-01-15T09:28:54.710Z,0.70
2023-01-15T09:31:23.500Z,1.23
2023-01-15T09:33:50.846Z,1.50
2023-01-15T09:36:22.553Z,1.43
2023-01-15T09:38:49.935Z,1.43
2023-01-15T09:41:35.996Z,1.47
2023-01-15T09:44:02.791Z,0.87
2023-01-15T09:47:07.456Z,1.00
2023-01-15T09:49:44.167Z,1.23
2023-01-15T09:52:20.038Z,1.33
2023-01-15T09:55:17.466Z,1.30
2023-01-15T09:57:49.301Z,2.13
2023-01-15T10:00:22.367Z,1.43
2023-01-15T10:03:14.135Z,1.37
2023-01-15T10:05:55.684Z,1.57
2023-01-15T10:08:33.640Z,1.60
2023-01-15T10:11:06.771Z,1.67
2023-01-15T10:13:36.835Z,1.40
2023-01-15T10:16:03.889Z,1.50
2023-01-15T10:18:30.785Z,1.33
2023-01-15T10:21:31.269Z,1.60
2023-01-15T10:24:19.226Z,1.30
2023-01-15T10:26:51.666Z,1.20
2023-01-15T10:29:48.429Z,1.10
2023-01-15T10:32:39.679Z,1.53
2023-01-15T10:35:17.992Z,0.90
2023-01-15T10:37:56.626Z,1.10
2023-01-15T10:40:32.651Z,1.07
2023-01-15T10:43:14.370Z,1.17
2023-01-15T10:45:52.937Z,1.30
2023-01-15T10:48:44.648Z,1.43
2023-01-15T10:51:40.914Z,1.03
2023-01-15T10:54:42.789Z,1.00
2023-01-15T10:57:23.686Z,1.10
2023-01-15T11:00:03.916Z,1.10
2023-01-15T11:02:51.797Z,0.70
2023-01-15T11:05:21.427Z,0.97
2023-01-15T11:08:19.470Z,0.90
2023-01-15T11:10:41.384Z,1.10
2023-01-15T11:13:42.221Z,1.27
2023-01-15T11:16:41.265Z,0.70
2023-01-15T11:19:42.340Z,1.07
2023-01-15T11:22:18.506Z,1.23
2023-01-15T11:24:51.405Z,0.90
2023-01-15T11:27:22.701Z,1.10
2023-01-15T11:29:59.080Z,0.97
2023-01-15T11:32:30.403Z,1.13
2023-01-15T11:35:10.766Z,1.20
2023-01-15T11:37:37.577Z,1.60
2023-01-15T11:40:08.818Z,1.23
2023-01-15T11:42:57.488Z,1.30
2023-01-15T11:45:43.911Z,1.57
2023-01-15T11:48:35.958Z,1.30
2023-01-15T11:51:10.684Z,1.73
2023-01-15T11:54:03.054Z,1.20
2023-01-15T11:56:32.658Z,1.17
2023-01-15T11:59:02.793Z,1.50
2023-01-15T12:01:41.511Z,1.37
2023-01-15T12:04:33.248Z,1.73
2023-01-15T12:07:00.998Z,1.40
2023-01-15T12:09:51.592Z,1.80
2023-01-15T12:12:49.948Z,1.40
2023-01-15T12:15:22.012Z,1.00
2023-01-15T12:17:48.697Z,1.50
2023-01-15T12:20:25.500Z,1.03
2023-01-15T12:23:10.705Z,1.07
2023-01-15T12:26:07.571Z,1.30
2023-01-15T12:28:38.456Z,1.20
2023-01-15T12:31:17.266Z,1.50
2023-01-15T12:33:56.968Z,1.10
2023-01-15T12:36:53.484Z,1.37
2023-01-15T12:39:47.423Z,1.33
2023-01-15T12:42:38.093Z,1.30
2023-01-15T12:45:12.855Z,1.77
2023-01-15T12:47:48.686Z,1.47
2023-01-15T12:50:36.866Z,1.70
2023-01-15T12:53:19.347Z,1.67
2023-01-15T12:55:50.955Z,1.40
2023-01-15T12:58:27.203Z,1.30
2023-01-15T13:01:03.954Z,1.10
2023-01-15T13:03:48.158Z,1.90
2023-01-15T13:06:17.027Z,1.53
2023-01-15T13:09:10.023Z,1.40
2023-01-15T13:11:37.008Z,1.00
2023-01-15T13:14:04.140Z,1.43
2023-01-15T13:16:43.956Z,1.30
2023-01-15T13:19:29.162Z,0.90
2023-01-15T13:22:10.664Z,1.30
2023-01-15T13:25:01.968Z,1.73
2023-01-15T13:27:46.160Z,0.97
2023-01-15T13:30:52.382Z,1.30
2023-01-15T13:33:29.961Z,1.00
2023-01-15T13:36:19.921Z,1.30
2023-01-15T13:38:53.034Z,0.97
2023-01-15T13:41:42.483Z,1.07
2023-01-15T13:44:34.364Z,1.00
2023-01-15T13:47:17.603Z,1.00
2023-01-15T13:49:54.637Z,1.03
2023-01-15T13:52:35.424Z,1.27
2023-01-15T13:55:16.897Z,1.23
2023-01-15T13:57:44.809Z,0.93
2023-01-15T14:00:40.301Z,0.80
2023-01-15T14:03:27.873Z,0.97
2023-01-15T14:06:00.811Z,0.90
2023-01-15T14:08:41.380Z,0.97
2023-01-15T14:11:34.945Z,0.90
2023-01-15T14:14:39.300Z,1.00
2023-01-15T14:17:45.352Z,0.77
2023-01-15T14:20:20.836Z,0.80
2023-01-15T14:23:06.516Z,0.87
2023-01-15T14:25:36.153Z,1.20
2023-01-15T14:28:31.156Z,1.13
2023-01-15T14:31:13.240Z,1.00
2023-01-15T14:34:03.192Z,1.00
2023-01-15T14:36:40.286Z,0.90
2023-01-15T14:39:25.453Z,0.90
2023-01-15T14:42:44.012Z,0.90
2023-01-15T14:45:13.568Z,1.27
2023-01-15T14:47:51.344Z,0.70
2023-01-15T14:50:43.897Z,0.97
2023-01-15T14:53:13.700Z,1.33
2023-01-15T14:55:55.782Z,1.20
2023-01-15T14:58:50.001Z,0.97
2023-01-15T15:01:17.359Z,1.00
2023-01-15T15:03:54.128Z,0.90
2023-01-15T15:06:21.920Z,0.90
2023-01-15T15:08:50.492Z,0.70
2023-01-15T15:12:05.179Z,0.90
2023-01-15T15:14:36.021Z,1.30
2023-01-15T15:17:11.488Z,0.90
2023-01-15T15:19:47.911Z,1.00
2023-01-15T15:22:18.153Z,0.80
2023-01-15T15:24:51.669Z,1.10
2023-01-15T15:27:23.629Z,1.07
2023-01-15T15:29:50.762Z,0.87
2023-01-15T15:32:23.421Z,0.70
2023-01-15T15:34:52.806Z,1.00
2023-01-15T15:37:28.207Z,0.60
2023-01-15T15:40:19.917Z,0.90
2023-01-15T15:43:19.170Z,1.23
2023-01-15T15:46:16.142Z,0.97
2023-01-15T15:48:53.903Z,0.90
2023-01-15T15:51:34.714Z,1.00
2023-01-15T15:54:21.420Z,1.00
2023-01-15T15:56:53.675Z,1.10
2023-01-15T15:59:30.851Z,0.90
2023-01-15T16:02:20.286Z,0.70
2023-01-15T16:04:51.569Z,1.10
2023-01-15T16:07:27.857Z,0.63
2023-01-15T16:09:59.346Z,1.00
2023-01-15T16:12:31.076Z,1.00
2023-01-15T16:14:59.329Z,1.20
2023-01-15T16:17:27.246Z,0.90
2023-01-15T16:19:58.744Z,0.90
2023-01-15T16:22:25.808Z,0.90
2023-01-15T16:24:59.127Z,1.13
2023-01-15T16:27:35.911Z,1.53
2023-01-15T16:30:05.015Z,0.90
2023-01-15T16:32:36.935Z,1.47
2023-01-15T16:35:29.174Z,1.07
2023-01-15T16:37:59.063Z,1.60
2023-01-15T16:40:35.421Z,1.10
2023-01-15T16:43:13.400Z,0.90
2023-01-15T16:46:00.856Z,1.13
2023-01-15T16:48:31.120Z,1.10
2023-01-15T16:51:00.711Z,1.63
2023-01-15T16:53:36.409Z,1.40
2023-01-15T16:56:03.741Z,1.07
2023-01-15T16:58:38.784Z,1.30
2023-01-15T17:01:39.249Z,1.73
2023-01-15T17:04:29.151Z,1.67
2023-01-15T17:07:03.425Z,1.77
2023-01-15T17:09:34.234Z,1.43
2023-01-15T17:12:08.829Z,1.20
2023-01-15T17:14:35.714Z,1.13
2023-01-15T17:17:22.770Z,1.40
2023-01-15T17:19:51.152Z,1.30
2023-01-15T17:22:31.135Z,1.33
2023-01-15T17:25:00.222Z,1.60
2023-01-15T17:27:29.615Z,1.87
2023-01-15T17:29:57.592Z,1.90
2023-01-15T17:32:26.413Z,1.20
2023-01-15T17:34:53.313Z,1.30
2023-01-15T17:37:22.343Z,1.40
2023-01-15T17:39:49.520Z,1.70
2023-01-15T17:42:18.396Z,1.67
2023-01-15T17:44:45.700Z,2.00
2023-01-15T17:47:12.777Z,1.87
2023-01-15T17:49:39.760Z,1.33
2023-01-15T17:52:13.672Z,1.80
2023-01-15T17:54:59.172Z,0.83
2023-01-15T17:57:52.041Z,0.73
2023-01-15T18:00:37.812Z,1.10
2023-01-15T18:03:23.494Z,0.80
2023-01-15T18:05:51.760Z,1.17
2023-01-15T18:08:18.941Z,1.53
2023-01-15T18:10:45.946Z,1.67
2023-01-15T18:13:12.939Z,1.43
2023-01-15T18:15:39.954Z,1.07
2023-01-15T18:18:06.860Z,1.30
2023-01-15T18:20:34.024Z,1.57
2023-01-15T18:23:00.839Z,1.10
2023-01-15T18:25:27.640Z,1.70
2023-01-15T18:27:54.571Z,0.80
2023-01-15T18:30:21.554Z,1.13
2023-01-15T18:32:48.556Z,2.03
2023-01-15T18:35:16.083Z,2.10
2023-01-15T18:37:43.484Z,1.30
2023-01-15T18:40:11.327Z,0.90
2023-01-15T18:43:00.625Z,0.97
2023-01-15T18:45:45.999Z,1.30
2023-01-15T18:48:13.075Z,1.53
2023-01-15T18:50:40.063Z,1.07
2023-01-15T18:53:08.618Z,0.80
2023-01-15T18:55:35.434Z,1.30
2023-01-15T18:58:02.607Z,0.90
2023-01-15T19:00:29.645Z,1.67
2023-01-15T19:02:56.684Z,2.70
2023-01-15T19:05:23.728Z,1.80
2023-01-15T19:07:50.782Z,1.00
2023-01-15T19:10:18.734Z,1.20
2023-01-15T19:12:45.906Z,1.43
2023-01-15T19:15:34.644Z,2.20
2023-01-15T19:18:20.199Z,1.40
2023-01-15T19:20:47.117Z,0.87
2023-01-15T19:23:14.057Z,0.90
2023-01-15T19:25:43.292Z,1.03
2023-01-15T19:28:16.008Z,1.27
2023-01-15T19:31:04.523Z,0.93
2023-01-15T19:33:31.660Z,1.10
2023-01-15T19:35:58.919Z,1.60
2023-01-15T19:38:25.863Z,1.47
2023-01-15T19:40:52.898Z,1.20
2023-01-15T19:46:37.261Z,1.17
2023-01-15T19:49:22.938Z,1.27
2023-01-15T19:52:08.535Z,1.50
2023-01-15T19:54:54.130Z,1.13
2023-01-15T19:57:21.621Z,1.50
2023-01-15T19:59:49.461Z,1.10
2023-01-15T20:02:16.892Z,1.00
2023-01-15T20:04:46.008Z,1.10
2023-01-15T20:07:13.522Z,1.40
2023-01-15T20:09:41.261Z,1.27
2023-01-15T20:12:28.176Z,0.80
2023-01-15T20:14:55.098Z,0.83
2023-01-15T20:17:22.560Z,0.90
2023-01-15T20:19:49.780Z,0.80
2023-01-15T20:22:16.625Z,1.33
2023-01-15T20:24:44.745Z,1.07
2023-01-15T20:27:14.733Z,1.10
2023-01-15T20:29:44.461Z,1.20
2023-01-15T20:32:11.219Z,1.13
2023-01-15T20:34:41.081Z,0.80
2023-01-15T20:37:08.536Z,1.10
2023-01-15T20:39:35.382Z,0.70
2023-01-15T20:42:20.826Z,1.10
2023-01-15T20:44:53.694Z,1.30
2023-01-15T20:47:44.200Z,1.23
2023-01-15T20:50:15.824Z,1.00
2023-01-15T20:52:48.327Z,1.47
2023-01-15T20:55:17.303Z,1.30
2023-01-15T20:57:45.331Z,0.77
2023-01-15T21:00:20.971Z,1.03
2023-01-15T21:02:48.088Z,0.90
2023-01-15T21:05:15.165Z,0.93
2023-01-15T21:07:42.159Z,0.57
2023-01-15T21:10:13.795Z,0.90
2023-01-15T21:12:41.238Z,0.90
2023-01-15T21:15:08.719Z,0.70
2023-01-15T21:17:38.634Z,0.80
2023-01-15T21:20:07.949Z,1.23
2023-01-15T21:22:35.361Z,0.80
2023-01-15T21:25:02.573Z,1.20
2023-01-15T21:27:29.618Z,1.10
2023-01-15T21:29:56.583Z,1.00
2023-01-15T21:32:24.316Z,0.87
2023-01-15T21:34:51.624Z,0.93
2023-01-15T21:37:18.512Z,1.20
2023-01-15T21:39:45.541Z,0.93
2023-01-15T21:42:35.734Z,1.53
2023-01-15T21:45:04.833Z,1.20
2023-01-15T21:47:32.532Z,1.50
2023-01-15T21:49:59.538Z,1.57
2023-01-15T21:52:29.405Z,1.50
2023-01-15T21:54:56.462Z,1.50
2023-01-15T21:57:23.989Z,1.73
2023-01-15T21:59:51.128Z,1.93
2023-01-15T22:02:21.997Z,1.70
2023-01-15T22:04:49.820Z,1.47
2023-01-15T22:07:18.339Z,1.73
2023-01-15T22:09:46.005Z,1.73
2023-01-15T22:12:13.330Z,1.80
2023-01-15T22:14:40.369Z,1.47
2023-01-15T22:17:11.217Z,1.40
2023-01-15T22:19:38.324Z,1.97
2023-01-15T22:22:09.087Z,1.80
2023-01-15T22:24:38.682Z,1.53
2023-01-15T22:27:08.185Z,1.57
2023-01-15T22:29:38.944Z,1.47
2023-01-15T22:32:10.913Z,1.20
2023-01-15T22:34:37.892Z,1.23
2023-01-15T22:37:05.054Z,1.00
2023-01-15T22:39:32.130Z,1.20
2023-01-15T22:42:17.769Z,1.20
2023-01-15T22:44:45.258Z,1.50
2023-01-15T22:47:12.675Z,1.00
2023-01-15T22:49:39.626Z,0.83
2023-01-15T22:52:06.498Z,1.50
2023-01-15T22:54:33.365Z,0.93
2023-01-15T22:57:00.684Z,0.80
2023-01-15T22:59:27.676Z,1.00
2023-01-15T23:01:54.658Z,1.10
2023-01-15T23:04:25.194Z,1.00
2023-01-15T23:06:53.147Z,1.20
2023-01-15T23:09:24.249Z,1.23
2023-01-15T23:11:54.223Z,0.73
2023-01-15T23:14:22.207Z,1.10
2023-01-15T23:16:50.039Z,1.00
2023-01-15T23:19:17.555Z,1.00
2023-01-15T23:21:44.687Z,1.20
2023-01-15T23:24:11.879Z,1.00
2023-01-15T23:26:39.360Z,1.63
2023-01-15T23:29:06.692Z,1.30
2023-01-15T23:31:34.011Z,1.30
2023-01-15T23:34:00.830Z,0.97
2023-01-15T23:36:28.192Z,0.90
2023-01-15T23:38:55.462Z,1.33
2023-01-15T23:41:42.452Z,1.10
2023-01-15T23:44:36.363Z,1.50
2023-01-15T23:47:03.531Z,1.00
2023-01-15T23:49:30.461Z,0.80
2023-01-15T23:51:58.285Z,0.53
2023-01-15T23:54:28.901Z,1.20
2023-01-15T23:56:56.679Z,1.60
2023-01-15T23:59:24.034Z,1.27
